Paul, Idaho
Current Conditions -  °F | °C
As of 6:53 PM on Tuesday 25 Nov 2014 (Local Time) from KBYI Reporting Station
Overcast Overcast  
Wind Chill: 50°   Ceiling: 4300
Heat Index: 50°   Visibility: 10mi
Dew Point: 37°   Wind: 21mph
Humidity: 61%   Direction: 260°W
Pressure: 30.21"   Gusts: 29mph
Location:  42.61°N, 113.78°W
Report Text: KBYI 260153Z AUTO 26018G25KT 10SM OVC043 10/03 A3021 RMK AO2 SLP226 T01000028
Loading
Personal Weather Stations






























Interactive Weather Map New forecast layout! Learn more

10-Day Weather Forecast

Advertisements
Track Severe Weather on mobile